Time;durP1;ratioP1;P1;durP2;ratioP2;P2;SDS_P1;SDS_P2;PMS_P1;PMS_P2;Temp;Humidity;BMP_temperature;BMP_pressure;BME280_temperature;BME280_humidity;BME280_pressure;Samples;Min_cycle;Max_cycle;Signal;HPM_P1;HPM_P2
2023/04/28 00:00:01;;;;;;;11.30;7.40;;;;;;;1.94;71.73;97125.01;109076;1274;22680;-84
2023/04/28 00:02:33;;;;;;;15.50;8.00;;;;;;;2.02;71.82;97125.74;109099;1273;22524;-84
2023/04/28 00:05:04;;;;;;;12.90;7.50;;;;;;;2.11;71.68;97124.76;109120;1273;22529;-83
2023/04/28 00:07:36;;;;;;;11.40;7.60;;;;;;;2.11;71.38;97125.34;109104;1273;22525;-84
2023/04/28 00:10:09;;;;;;;10.30;7.70;;;;;;;2.09;71.28;97125.19;109113;1273;22522;-83
2023/04/28 00:12:42;;;;;;;12.20;7.80;;;;;;;2.12;71.25;97123.83;109160;1273;22546;-84
2023/04/28 00:15:13;;;;;;;12.30;7.90;;;;;;;2.14;71.19;97122.61;109092;1268;22971;-84
2023/04/28 00:17:44;;;;;;;11.50;7.70;;;;;;;2.14;71.19;97119.55;109089;1270;22578;-84
2023/04/28 00:20:15;;;;;;;12.10;8.30;;;;;;;2.09;70.95;97117.91;109188;1268;22518;-84
2023/04/28 00:22:48;;;;;;;13.10;8.30;;;;;;;2.07;71.14;97114.23;109126;1268;22479;-84
2023/04/28 00:25:19;;;;;;;12.50;8.60;;;;;;;2.07;71.36;97110.05;109199;1273;22539;-83
2023/04/28 00:27:50;;;;;;;13.80;8.40;;;;;;;2.10;71.33;97112.52;109136;1271;22522;-84
2023/04/28 00:30:21;;;;;;;11.00;8.50;;;;;;;2.09;71.14;97112.59;109138;1273;25426;-84
2023/04/28 00:32:52;;;;;;;10.40;8.00;;;;;;;2.07;71.01;97113.42;109123;1272;22527;-84
2023/04/28 00:35:23;;;;;;;12.00;8.20;;;;;;;2.10;71.23;97114.60;109128;1273;24218;-84
2023/04/28 00:37:54;;;;;;;12.70;8.30;;;;;;;2.10;71.35;97112.40;109121;1268;23191;-84
2023/04/28 00:40:32;;;;;;;11.50;8.20;;;;;;;2.06;71.07;97112.55;109055;1273;22537;-84
2023/04/28 00:43:03;;;;;;;13.00;9.20;;;;;;;2.04;71.07;97113.48;109015;1273;122185;-84
2023/04/28 00:45:34;;;;;;;11.40;8.40;;;;;;;2.04;71.08;97114.62;109162;1268;23862;-84
2023/04/28 00:48:06;;;;;;;11.80;7.90;;;;;;;2.05;71.26;97113.29;109107;1273;22514;-83
2023/04/28 00:50:37;;;;;;;12.50;7.90;;;;;;;2.03;71.55;97106.39;109124;1273;22530;-84
2023/04/28 00:53:08;;;;;;;13.50;10.00;;;;;;;2.05;71.62;97111.27;109138;1273;22455;-84
2023/04/28 00:55:40;;;;;;;12.20;8.60;;;;;;;2.05;71.48;97106.36;109111;1273;22547;-84
2023/04/28 00:58:11;;;;;;;12.20;7.50;;;;;;;2.02;71.18;97105.23;109107;1273;24190;-83
2023/04/28 01:00:42;;;;;;;11.50;7.20;;;;;;;2.00;71.15;97102.06;109126;1273;25276;-84
2023/04/28 01:03:14;;;;;;;12.10;7.90;;;;;;;1.96;71.00;97101.23;109100;1265;24182;-84
2023/04/28 01:05:45;;;;;;;11.50;7.90;;;;;;;1.93;71.07;97105.63;109141;1273;22476;-83
2023/04/28 01:08:16;;;;;;;11.30;7.70;;;;;;;1.93;70.94;97103.38;109137;1265;24526;-84
2023/04/28 01:10:47;;;;;;;10.00;7.10;;;;;;;1.91;70.93;97103.11;109148;1273;22495;-83
2023/04/28 01:13:18;;;;;;;13.00;7.80;;;;;;;1.93;71.14;97100.81;109109;1271;22558;-84
2023/04/28 01:15:49;;;;;;;11.00;8.00;;;;;;;1.96;71.32;97104.77;109125;1272;22698;-83
2023/04/28 01:18:20;;;;;;;10.10;7.40;;;;;;;1.95;71.24;97102.23;109112;1273;22917;-83
2023/04/28 01:20:50;;;;;;;11.80;7.60;;;;;;;1.92;71.18;97102.62;109115;1273;22550;-84
2023/04/28 01:23:21;;;;;;;11.30;7.60;;;;;;;1.92;71.27;97103.91;109150;1273;22480;-83
2023/04/28 01:25:52;;;;;;;12.00;7.90;;;;;;;1.92;70.97;97103.07;109090;1273;25255;-84
2023/04/28 01:28:24;;;;;;;13.10;8.60;;;;;;;1.90;70.97;97105.21;109109;1273;25415;-84
2023/04/28 01:30:55;;;;;;;13.40;7.60;;;;;;;1.90;71.18;97103.60;109159;1272;22563;-84
2023/04/28 01:33:26;;;;;;;13.40;7.60;;;;;;;1.96;71.05;97102.11;109087;1273;22549;-83
2023/04/28 01:36:00;;;;;;;12.20;8.50;;;;;;;1.95;71.08;97102.77;109120;1273;23044;-83
2023/04/28 01:38:31;;;;;;;11.60;7.20;;;;;;;1.93;70.79;97101.40;109079;1273;24748;-84
2023/04/28 01:41:02;;;;;;;9.70;7.40;;;;;;;1.93;70.70;97101.89;109097;1272;25323;-83
2023/04/28 01:43:33;;;;;;;10.10;6.60;;;;;;;1.89;70.66;97101.73;109116;1269;22626;-84
2023/04/28 01:46:04;;;;;;;12.10;7.60;;;;;;;1.85;70.56;97105.21;109091;1273;22458;-84
2023/04/28 01:48:35;;;;;;;9.70;6.90;;;;;;;1.85;70.78;97104.21;109115;1273;24400;-84
2023/04/28 01:51:06;;;;;;;10.80;7.00;;;;;;;1.89;71.02;97104.55;109088;1273;22560;-84
2023/04/28 01:53:37;;;;;;;10.30;7.20;;;;;;;1.95;70.96;97105.46;109130;1273;22545;-84
2023/04/28 01:56:08;;;;;;;10.90;7.90;;;;;;;2.01;70.82;97104.39;109095;1273;22565;-84
2023/04/28 01:58:39;;;;;;;11.30;7.70;;;;;;;2.06;70.81;97105.27;109110;1273;25963;-84
2023/04/28 02:01:10;;;;;;;10.70;8.10;;;;;;;2.10;70.71;97107.22;109134;1266;23208;-84
2023/04/28 02:03:41;;;;;;;12.70;8.20;;;;;;;2.12;70.62;97109.19;109118;1273;22689;-84
2023/04/28 02:06:12;;;;;;;11.80;8.10;;;;;;;2.13;70.56;97110.30;109142;1272;24675;-83
2023/04/28 02:08:46;;;;;;;14.10;8.80;;;;;;;2.11;70.62;97110.83;109094;1273;24250;-84
2023/04/28 02:11:16;;;;;;;12.00;8.50;;;;;;;2.11;70.58;97113.16;109140;1273;23808;-84
2023/04/28 02:13:47;;;;;;;14.60;8.70;;;;;;;2.08;70.47;97114.38;109085;1273;25223;-84
2023/04/28 02:16:18;;;;;;;12.30;7.90;;;;;;;2.05;70.41;97114.14;109077;1269;22611;-84
2023/04/28 02:18:49;;;;;;;12.70;9.00;;;;;;;2.06;71.03;97111.75;109114;1266;24159;-83
2023/04/28 02:21:20;;;;;;;12.90;7.60;;;;;;;2.09;71.00;97116.91;109184;1272;22494;-83
2023/04/28 02:23:52;;;;;;;16.20;9.40;;;;;;;2.10;70.89;97117.74;109106;1273;22537;-83
2023/04/28 02:26:23;;;;;;;14.00;9.40;;;;;;;2.09;70.97;97118.55;109135;1273;23242;-84
2023/04/28 02:28:54;;;;;;;13.30;9.20;;;;;;;2.06;70.92;97114.69;109094;1269;22554;-83
2023/04/28 02:31:25;;;;;;;14.20;9.00;;;;;;;2.03;70.75;97115.55;109128;1273;22478;-84
2023/04/28 02:33:57;;;;;;;14.80;9.20;;;;;;;2.02;70.73;97118.58;109138;1269;25271;-83
2023/04/28 02:36:27;;;;;;;13.70;8.10;;;;;;;2.00;70.96;97120.25;109128;1273;24180;-84
2023/04/28 02:38:58;;;;;;;13.10;8.00;;;;;;;2.00;71.12;97123.14;109126;1273;23809;-83
2023/04/28 02:41:30;;;;;;;12.70;8.50;;;;;;;2.00;71.07;97120.56;109178;1269;25440;-84
2023/04/28 02:44:01;;;;;;;14.60;7.60;;;;;;;2.00;71.15;97126.67;109140;1265;25279;-83
2023/04/28 02:46:32;;;;;;;10.90;7.10;;;;;;;1.99;71.01;97129.30;109268;1249;22518;-83
2023/04/28 02:49:03;;;;;;;10.50;7.40;;;;;;;1.97;71.23;97127.98;109186;1268;22538;-84
2023/04/28 02:51:34;;;;;;;10.90;8.80;;;;;;;1.94;71.57;97127.02;109114;1265;22532;-83
2023/04/28 02:54:05;;;;;;;11.60;9.00;;;;;;;1.89;71.57;97128.43;109172;1265;22983;-83
2023/04/28 02:56:39;;;;;;;14.90;10.10;;;;;;;1.84;71.63;97128.77;109103;1273;24207;-83
2023/04/28 02:59:10;;;;;;;14.60;10.50;;;;;;;1.82;71.62;97127.77;109077;1273;25465;-83
2023/04/28 03:01:41;;;;;;;13.70;9.10;;;;;;;1.83;71.49;97126.77;109174;1271;22519;-83
2023/04/28 03:04:12;;;;;;;14.70;9.90;;;;;;;1.84;71.56;97132.09;109114;1255;22624;-84
2023/04/28 03:06:44;;;;;;;13.20;9.10;;;;;;;1.82;71.44;97124.60;109127;1273;25399;-84
2023/04/28 03:09:15;;;;;;;15.60;10.10;;;;;;;1.82;71.40;97122.79;109115;1273;22722;-83
2023/04/28 03:11:46;;;;;;;12.70;9.00;;;;;;;1.79;71.46;97123.52;109096;1273;23689;-83
2023/04/28 03:14:17;;;;;;;13.40;9.80;;;;;;;1.78;71.37;97119.67;109125;1273;24487;-83
2023/04/28 03:16:48;;;;;;;12.80;9.50;;;;;;;1.81;71.51;97118.53;109098;1272;22793;-83
2023/04/28 03:19:19;;;;;;;15.50;9.40;;;;;;;1.79;71.03;97117.81;109142;1272;22538;-83
2023/04/28 03:21:50;;;;;;;14.20;9.30;;;;;;;1.79;71.29;97116.45;109097;1272;22514;-83
2023/04/28 03:24:21;;;;;;;12.70;9.30;;;;;;;1.83;71.38;97120.70;109173;1273;22563;-83
2023/04/28 03:26:52;;;;;;;11.10;8.30;;;;;;;1.87;71.35;97121.17;109112;1273;22659;-84
2023/04/28 03:29:24;;;;;;;13.10;9.00;;;;;;;1.88;71.38;97116.70;109111;1273;24354;-83
2023/04/28 03:31:55;;;;;;;19.50;10.20;;;;;;;1.89;71.35;97117.89;109096;1271;22819;-84
2023/04/28 03:34:26;;;;;;;16.70;10.20;;;;;;;1.88;71.25;97118.27;109167;1272;22514;-84
2023/04/28 03:36:57;;;;;;;15.40;10.10;;;;;;;1.89;71.15;97116.89;109103;1270;22523;-84
2023/04/28 03:39:28;;;;;;;13.50;10.00;;;;;;;1.90;71.09;97115.88;109118;1263;22518;-84
2023/04/28 03:41:59;;;;;;;14.00;9.60;;;;;;;1.92;70.98;97118.66;109113;1272;22518;-84
2023/04/28 03:44:31;;;;;;;15.90;9.20;;;;;;;1.93;70.76;97121.36;109077;1273;25413;-83
2023/04/28 03:47:02;;;;;;;11.60;8.70;;;;;;;1.93;70.76;97121.36;109147;1273;22652;-84
2023/04/28 03:49:33;;;;;;;14.40;9.50;;;;;;;1.94;70.74;97124.73;109096;1251;22573;-84
2023/04/28 03:52:04;;;;;;;15.40;10.40;;;;;;;2.00;70.83;97124.86;109119;1272;22588;-83
2023/04/28 03:54:35;;;;;;;14.40;9.40;;;;;;;2.07;70.75;97130.77;109178;1273;22529;-83
2023/04/28 03:57:06;;;;;;;14.60;10.20;;;;;;;2.13;70.72;97127.36;109141;1272;22622;-83
2023/04/28 03:59:38;;;;;;;13.80;8.70;;;;;;;2.19;70.60;97128.92;109226;1270;22565;-83
2023/04/28 04:02:09;;;;;;;13.10;9.30;;;;;;;2.27;70.55;97131.40;109104;1273;22571;-83
2023/04/28 04:04:40;;;;;;;13.50;9.80;;;;;;;2.34;70.33;97134.29;109146;1272;22663;-84
2023/04/28 04:07:11;;;;;;;16.40;10.50;;;;;;;2.40;70.20;97131.03;109200;1272;22561;-83
2023/04/28 04:09:42;;;;;;;14.00;8.60;;;;;;;2.48;70.20;97129.27;109075;1273;22624;-83
2023/04/28 04:12:14;;;;;;;11.50;8.60;;;;;;;2.55;69.90;97129.34;109160;1270;22569;-84
2023/04/28 04:14:45;;;;;;;13.20;9.60;;;;;;;2.59;69.95;97128.17;109081;1273;22564;-85
2023/04/28 04:17:16;;;;;;;12.70;8.50;;;;;;;2.65;69.83;97123.77;109211;1251;22520;-84
2023/04/28 04:19:47;;;;;;;13.20;8.80;;;;;;;2.67;69.90;97127.58;109102;1264;22518;-84
2023/04/28 04:22:18;;;;;;;12.90;9.20;;;;;;;2.69;69.72;97127.13;109133;1273;23693;-83
2023/04/28 04:24:49;;;;;;;11.90;8.60;;;;;;;2.78;69.59;97124.70;109131;1273;25191;-84
2023/04/28 04:27:20;;;;;;;14.10;9.20;;;;;;;2.92;69.52;97121.88;109140;1272;22512;-84
2023/04/28 04:29:51;;;;;;;9.50;6.30;;;;;;;3.04;69.10;97122.14;109070;1269;25255;-84
2023/04/28 04:32:23;;;;;;;13.00;7.10;;;;;;;3.42;68.70;97114.98;109109;1273;25281;-84
2023/04/28 04:34:53;;;;;;;10.50;6.80;;;;;;;4.65;67.90;97119.22;109095;1272;22554;-84
2023/04/28 04:37:25;;;;;;;11.20;6.90;;;;;;;6.00;65.44;97117.45;109126;1273;22704;-84
2023/04/28 04:39:56;;;;;;;9.50;6.40;;;;;;;7.23;63.74;97111.15;109087;1273;22507;-84
2023/04/28 04:42:27;;;;;;;14.90;8.00;;;;;;;8.14;60.57;97105.38;109125;1267;24207;-84
2023/04/28 04:44:58;;;;;;;10.40;7.50;;;;;;;8.74;58.43;97102.72;109092;1273;22812;-84
2023/04/28 04:47:29;;;;;;;10.90;7.70;;;;;;;9.28;56.63;97103.41;109107;1273;22587;-84
2023/04/28 04:50:00;;;;;;;11.90;6.90;;;;;;;9.82;55.80;97102.65;109206;1271;22659;-84
2023/04/28 04:52:31;;;;;;;12.00;8.30;;;;;;;10.50;53.88;97100.77;109110;1272;25424;-84
2023/04/28 04:55:02;;;;;;;11.80;7.80;;;;;;;11.17;53.35;97094.58;109116;1269;22523;-84
2023/04/28 04:57:34;;;;;;;10.30;7.80;;;;;;;11.78;51.48;97093.15;109109;1273;23311;-84
2023/04/28 05:00:06;;;;;;;9.80;6.80;;;;;;;12.41;49.77;97094.79;109126;1273;22527;-84
2023/04/28 05:02:37;;;;;;;10.50;7.20;;;;;;;12.90;48.59;97092.98;109089;1273;24189;-84
2023/04/28 05:05:09;;;;;;;9.70;6.60;;;;;;;13.40;47.82;97089.82;109116;1273;22528;-84
2023/04/28 05:07:40;;;;;;;10.80;6.90;;;;;;;13.80;46.40;97091.69;109050;1272;22527;-84
2023/04/28 05:10:12;;;;;;;9.10;5.70;;;;;;;13.77;44.04;97087.67;109179;1272;22554;-83
2023/04/28 05:12:43;;;;;;;10.20;6.70;;;;;;;13.68;44.11;97089.81;109037;1273;22539;-84
2023/04/28 05:15:14;;;;;;;9.80;6.40;;;;;;;14.36;44.15;97095.87;109112;1273;23073;-84
2023/04/28 05:17:46;;;;;;;12.20;6.80;;;;;;;14.65;42.40;97092.18;109158;1272;25293;-84
2023/04/28 05:20:17;;;;;;;8.40;6.00;;;;;;;14.59;41.86;97096.38;109109;1273;22552;-83
2023/04/28 05:22:48;;;;;;;10.20;7.10;;;;;;;14.65;40.75;97097.92;109140;1273;22588;-84
2023/04/28 05:25:19;;;;;;;8.70;6.50;;;;;;;14.68;41.23;97095.86;109083;1273;22568;-84
2023/04/28 05:27:50;;;;;;;8.10;5.20;;;;;;;15.08;40.54;97095.88;109093;1272;22541;-84
2023/04/28 05:30:21;;;;;;;9.40;6.40;;;;;;;15.15;39.54;97096.21;109098;1273;22548;-84
2023/04/28 05:32:53;;;;;;;8.70;5.30;;;;;;;15.07;39.05;97095.30;109134;1270;24975;-84
2023/04/28 05:35:25;;;;;;;9.80;6.00;;;;;;;15.51;39.94;97097.73;109080;1273;22549;-84
2023/04/28 05:37:56;;;;;;;8.90;5.70;;;;;;;16.38;39.20;97094.27;109106;1273;22922;-84
2023/04/28 05:40:28;;;;;;;6.90;5.10;;;;;;;16.76;38.19;97096.25;109132;1273;22527;-84
2023/04/28 05:42:59;;;;;;;7.90;5.60;;;;;;;16.91;37.40;97096.61;109109;1268;22521;-84
2023/04/28 05:45:30;;;;;;;6.70;5.00;;;;;;;16.95;36.06;97093.71;109105;1273;24196;-84
2023/04/28 05:48:01;;;;;;;8.20;5.50;;;;;;;16.47;36.20;97098.67;109116;1267;24125;-84
2023/04/28 05:50:32;;;;;;;8.90;5.10;;;;;;;16.34;36.19;97100.42;109047;1269;23716;-84
2023/04/28 05:53:03;;;;;;;8.20;5.00;;;;;;;16.62;35.90;97106.94;109183;1269;24213;-84
2023/04/28 05:55:35;;;;;;;8.60;5.40;;;;;;;16.85;35.24;97108.05;109139;1273;23873;-84
2023/04/28 05:58:06;;;;;;;8.60;5.40;;;;;;;17.08;35.51;97107.67;109168;1267;22472;-84
2023/04/28 06:00:38;;;;;;;8.80;5.00;;;;;;;17.58;35.44;97106.40;109203;1272;22589;-84
2023/04/28 06:03:10;;;;;;;7.90;4.90;;;;;;;17.84;34.53;97104.66;109122;1273;22484;-84
2023/04/28 06:05:41;;;;;;;9.40;5.40;;;;;;;18.08;33.89;97108.59;109121;1273;22518;-84
2023/04/28 06:08:12;;;;;;;7.40;5.20;;;;;;;17.86;33.41;97105.62;109061;1270;22587;-84
2023/04/28 06:10:43;;;;;;;6.50;4.90;;;;;;;18.23;33.72;97111.50;109127;1273;25280;-84
2023/04/28 06:13:14;;;;;;;8.20;5.10;;;;;;;18.93;33.19;97113.61;109104;1273;22533;-85
2023/04/28 06:15:45;;;;;;;6.90;4.80;;;;;;;19.57;33.46;97112.27;109123;1251;22529;-85
2023/04/28 06:18:16;;;;;;;8.70;5.50;;;;;;;20.28;32.30;97106.91;109123;1250;23141;-85
2023/04/28 06:20:47;;;;;;;8.90;5.00;;;;;;;20.47;32.09;97111.15;109156;1267;23271;-84
2023/04/28 06:23:18;;;;;;;7.70;4.80;;;;;;;20.88;31.33;97112.31;109066;1270;22543;-84
2023/04/28 06:25:49;;;;;;;6.50;4.80;;;;;;;20.99;31.45;97108.69;109124;1273;22603;-84
2023/04/28 06:28:20;;;;;;;6.90;4.80;;;;;;;21.33;31.26;97102.70;109132;1262;25232;-85
2023/04/28 06:30:51;;;;;;;5.90;4.40;;;;;;;21.36;30.52;97103.80;109063;1273;25328;-85
2023/04/28 06:33:22;;;;;;;7.90;4.90;;;;;;;20.90;30.21;97098.59;109084;1267;25407;-85
2023/04/28 06:35:53;;;;;;;7.30;4.70;;;;;;;20.65;30.24;97103.42;109165;1272;25257;-85
2023/04/28 06:38:24;;;;;;;6.70;4.90;;;;;;;20.82;30.33;97100.80;109074;1273;26456;-85
2023/04/28 06:40:56;;;;;;;8.70;4.40;;;;;;;21.18;30.31;97104.20;109123;1273;23806;-85
2023/04/28 06:43:27;;;;;;;6.40;4.20;;;;;;;21.48;29.45;97098.56;109023;1270;25454;-85
2023/04/28 06:45:57;;;;;;;8.30;4.30;;;;;;;21.04;28.55;97102.22;109132;1257;25272;-85
2023/04/28 06:48:28;;;;;;;7.70;4.70;;;;;;;20.48;29.05;97103.92;109066;1267;25487;-83
2023/04/28 06:50:59;;;;;;;6.60;4.30;;;;;;;20.59;29.59;97107.45;109137;1273;24260;-85
2023/04/28 06:53:30;;;;;;;5.00;3.70;;;;;;;20.85;28.63;97104.73;109185;1272;22522;-85
2023/04/28 06:56:01;;;;;;;6.40;3.70;;;;;;;20.50;27.97;97098.20;109124;1262;23055;-85
2023/04/28 06:58:32;;;;;;;4.60;3.60;;;;;;;20.23;28.98;97097.95;109104;1270;23847;-85
2023/04/28 07:01:04;;;;;;;5.60;3.40;;;;;;;21.33;29.01;97096.02;109113;1273;23127;-84
2023/04/28 07:03:35;;;;;;;5.60;3.20;;;;;;;22.48;28.42;97088.48;109119;1267;23149;-84
2023/04/28 07:06:07;;;;;;;3.50;3.00;;;;;;;23.14;27.87;97088.78;109094;1266;25472;-85
2023/04/28 07:08:38;;;;;;;5.70;3.30;;;;;;;23.88;27.12;97085.73;109117;1273;22511;-85
2023/04/28 07:11:09;;;;;;;4.70;3.00;;;;;;;24.50;26.50;97086.66;109110;1273;22561;-85
2023/04/28 07:13:42;;;;;;;3.60;2.20;;;;;;;24.22;25.48;97082.83;109122;1270;22561;-84
2023/04/28 07:16:13;;;;;;;4.50;2.30;;;;;;;24.15;25.77;97088.15;109040;1270;22507;-85
2023/04/28 07:18:44;;;;;;;5.20;2.60;;;;;;;25.00;26.11;97082.42;109118;1273;22614;-85
2023/04/28 07:21:15;;;;;;;4.30;2.40;;;;;;;26.02;25.47;97083.09;109142;1270;24969;-85
2023/04/28 07:23:46;;;;;;;5.80;2.60;;;;;;;26.48;24.13;97076.58;109118;1267;24372;-85
2023/04/28 07:26:17;;;;;;;4.70;2.60;;;;;;;26.72;23.80;97076.31;109088;1273;22588;-85
2023/04/28 07:28:48;;;;;;;4.30;2.20;;;;;;;27.09;24.16;97076.23;109106;1270;22531;-85
2023/04/28 07:31:20;;;;;;;4.00;2.50;;;;;;;27.07;22.02;97066.08;109063;1273;22518;-85
2023/04/28 07:33:51;;;;;;;3.60;2.20;;;;;;;25.63;22.34;97068.16;109152;1266;22514;-84
2023/04/28 07:36:22;;;;;;;4.20;2.60;;;;;;;25.28;21.94;97066.97;109132;1273;22459;-85
2023/04/28 07:38:53;;;;;;;3.50;2.60;;;;;;;25.52;23.06;97064.96;109114;1272;25410;-85
2023/04/28 07:41:26;;;;;;;4.80;2.60;;;;;;;26.17;22.54;97063.98;109139;1272;23168;-85
2023/04/28 07:43:57;;;;;;;4.80;2.00;;;;;;;25.63;21.24;97058.27;109027;1273;22755;-85
2023/04/28 07:46:28;;;;;;;3.70;2.60;;;;;;;24.29;21.58;97064.46;109129;1273;22692;-84
2023/04/28 07:49:00;;;;;;;7.20;2.60;;;;;;;24.58;22.48;97064.34;109045;1273;24405;-85
2023/04/28 07:51:31;;;;;;;5.10;2.80;;;;;;;24.57;21.54;97057.53;109117;1270;22645;-85
2023/04/28 07:54:02;;;;;;;4.20;2.40;;;;;;;24.34;22.49;97057.37;109202;1272;22514;-85
2023/04/28 07:56:33;;;;;;;4.70;2.70;;;;;;;24.50;21.36;97062.73;109224;1272;22956;-84
2023/04/28 07:59:04;;;;;;;4.20;2.70;;;;;;;23.44;20.80;97058.83;109078;1251;22514;-85
2023/04/28 08:01:35;;;;;;;4.00;2.70;;;;;;;22.92;22.32;97057.47;109115;1273;22502;-85
2023/04/28 08:04:06;;;;;;;5.00;3.20;;;;;;;22.54;21.97;97059.22;109085;1266;24159;-85
2023/04/28 08:06:38;;;;;;;5.00;3.00;;;;;;;22.84;22.70;97059.14;109023;1266;22547;-85
2023/04/28 08:09:10;;;;;;;5.60;3.10;;;;;;;23.16;21.91;97062.73;109099;1266;22541;-85
2023/04/28 08:11:41;;;;;;;4.70;3.10;;;;;;;23.26;22.08;97053.70;109108;1273;22685;-85
2023/04/28 08:14:12;;;;;;;4.70;2.80;;;;;;;23.49;22.36;97054.16;109115;1273;22518;-86
2023/04/28 08:16:43;;;;;;;5.50;3.00;;;;;;;23.53;22.17;97048.92;109144;1273;22565;-85
2023/04/28 08:19:14;;;;;;;4.70;3.30;;;;;;;24.12;22.82;97045.38;109086;1273;24670;-85
2023/04/28 08:21:45;;;;;;;5.10;3.00;;;;;;;25.22;22.80;97039.94;109150;1273;22524;-86
2023/04/28 08:24:16;;;;;;;4.70;3.20;;;;;;;25.75;21.80;97036.23;109197;1272;22466;-85
2023/04/28 08:26:47;;;;;;;6.10;3.60;;;;;;;25.73;21.95;97036.20;109152;1270;22638;-85
2023/04/28 08:29:18;;;;;;;5.30;3.90;;;;;;;25.26;19.78;97035.44;109091;1270;22520;-85
2023/04/28 08:31:49;;;;;;;5.80;3.60;;;;;;;23.41;20.51;97033.32;109088;1273;22527;-84
2023/04/28 08:34:20;;;;;;;7.10;3.30;;;;;;;22.60;22.48;97030.50;109119;1273;25107;-85
2023/04/28 08:36:51;;;;;;;5.90;3.20;;;;;;;23.20;22.99;97030.36;109183;1266;22675;-85
2023/04/28 08:39:22;;;;;;;5.30;3.80;;;;;;;22.82;22.46;97024.70;109175;1254;25534;-85
2023/04/28 08:41:53;;;;;;;7.20;3.70;;;;;;;22.46;23.21;97024.19;109104;1266;22688;-85
2023/04/28 08:44:25;;;;;;;5.50;3.60;;;;;;;23.55;22.20;97027.41;109094;1273;24221;-84
2023/04/28 08:47:00;;;;;;;7.00;3.90;;;;;;;22.92;21.99;97021.33;109166;1273;25474;-84
2023/04/28 08:49:37;;;;;;;4.80;3.30;;;;;;;22.42;21.98;97019.12;109043;1267;22542;-85
2023/04/28 08:52:16;;;;;;;6.10;3.60;;;;;;;22.08;22.41;97015.04;109092;1273;23784;-84
2023/04/28 08:54:52;;;;;;;7.10;4.10;;;;;;;22.82;23.12;97017.05;109144;1267;22576;-84
2023/04/28 08:57:26;;;;;;;6.10;3.60;;;;;;;22.72;21.59;97012.98;109119;1273;22516;-84
2023/04/28 08:59:58;;;;;;;6.40;3.60;;;;;;;22.20;22.63;97011.98;109236;1274;22573;-84
2023/04/28 09:02:29;;;;;;;6.20;3.80;;;;;;;21.97;23.37;97015.17;109100;1273;22524;-84
2023/04/28 09:05:00;;;;;;;6.30;4.00;;;;;;;21.53;23.93;97008.39;109047;1270;23175;-84
2023/04/28 09:07:31;;;;;;;6.80;3.90;;;;;;;21.52;24.81;97010.27;109039;1267;22615;-84
2023/04/28 09:10:23;;;;;;;6.40;4.00;;;;;;;22.09;24.55;97008.58;109075;1266;23847;-84
2023/04/28 09:12:56;;;;;;;5.40;3.40;;;;;;;22.46;24.22;97008.20;109048;1270;22509;-84
2023/04/28 09:15:33;;;;;;;5.30;3.70;;;;;;;21.68;23.73;97002.94;109087;1274;22979;-84
2023/04/28 09:18:05;;;;;;;5.60;3.30;;;;;;;20.22;24.34;97007.98;109077;1270;25441;-84
2023/04/28 09:20:37;;;;;;;7.90;3.60;;;;;;;19.30;25.06;97005.84;109010;1274;22527;-84
2023/04/28 09:23:18;;;;;;;8.60;4.00;;;;;;;18.52;25.83;97004.17;109022;1274;23863;-84
2023/04/28 09:26:01;;;;;;;5.80;3.40;;;;;;;17.46;26.74;97003.28;109056;1274;23189;-84
2023/04/28 09:28:32;;;;;;;6.00;3.00;;;;;;;16.94;27.54;96999.30;109003;1274;22516;-84
2023/04/28 09:31:04;;;;;;;6.10;3.90;;;;;;;16.43;28.59;96996.73;109055;1273;22530;-85
2023/04/28 09:33:34;;;;;;;4.70;3.40;;;;;;;15.61;29.04;96997.63;109071;1273;24192;-84
2023/04/28 09:36:06;;;;;;;6.80;4.10;;;;;;;15.34;30.09;96999.96;109089;1267;22600;-84
2023/04/28 09:38:44;;;;;;;7.30;4.10;;;;;;;15.36;29.78;96997.57;109021;1267;22575;-84
2023/04/28 09:41:16;;;;;;;6.10;3.60;;;;;;;15.15;29.67;96988.42;109046;1273;22518;-84
2023/04/28 09:43:47;;;;;;;6.90;3.80;;;;;;;14.85;30.25;96981.17;109041;1251;22552;-84
2023/04/28 09:46:30;;;;;;;5.70;3.90;;;;;;;14.92;30.75;96981.77;109031;1266;22591;-84
2023/04/28 09:49:03;;;;;;;6.90;4.00;;;;;;;14.99;31.92;96980.48;109047;1267;22705;-84
2023/04/28 09:51:34;;;;;;;7.90;4.20;;;;;;;15.25;31.50;96979.66;109050;1270;22540;-84
2023/04/28 09:54:06;;;;;;;5.80;3.40;;;;;;;15.34;30.82;96974.64;109075;1273;22516;-83
2023/04/28 09:56:37;;;;;;;7.90;3.90;;;;;;;15.40;31.44;96972.52;109029;1267;22558;-85
2023/04/28 09:59:08;;;;;;;6.30;3.70;;;;;;;15.61;30.86;96969.69;109097;1270;22533;-84
2023/04/28 10:01:43;;;;;;;7.40;4.10;;;;;;;15.33;30.97;96963.12;109062;1274;25430;-84
2023/04/28 10:04:15;;;;;;;7.30;3.70;;;;;;;15.50;31.75;96965.41;109045;1274;23661;-84
2023/04/28 10:06:46;;;;;;;6.10;4.30;;;;;;;15.53;31.63;96961.23;109023;1274;22524;-83
2023/04/28 10:09:25;;;;;;;10.20;4.40;;;;;;;15.18;31.17;96956.80;109014;1266;22519;-84
2023/04/28 10:11:56;;;;;;;4.90;3.60;;;;;;;14.57;32.58;96956.33;109033;1267;24026;-84
2023/04/28 10:14:27;;;;;;;6.70;4.00;;;;;;;14.38;32.53;96958.67;109100;1273;22524;-84
2023/04/28 10:17:02;;;;;;;5.20;3.40;;;;;;;14.44;32.24;96961.89;109055;1274;22543;-84
2023/04/28 10:19:33;;;;;;;9.00;3.40;;;;;;;14.48;32.84;96963.80;109079;1268;22522;-84
2023/04/28 10:22:22;;;;;;;5.10;3.50;;;;;;;14.75;32.71;96956.36;109065;1274;22690;-84
2023/04/28 10:25:17;;;;;;;6.00;3.20;;;;;;;15.01;33.09;96954.42;109065;1274;22523;-84
2023/04/28 10:27:49;;;;;;;7.40;4.00;;;;;;;14.71;32.21;96956.34;109059;1269;22527;-84
2023/04/28 10:30:22;;;;;;;5.50;3.00;;;;;;;14.68;32.63;96952.98;109069;1274;22553;-85
2023/04/28 10:33:25;;;;;;;4.50;3.20;;;;;;;14.84;31.82;96947.92;109075;1268;22521;-84
2023/04/28 10:35:56;;;;;;;6.00;3.30;;;;;;;14.76;31.69;96946.37;109051;1274;25504;-84
2023/04/28 10:38:27;;;;;;;7.30;3.70;;;;;;;15.02;32.30;96933.46;109045;1267;22553;-84
2023/04/28 10:41:01;;;;;;;10.10;4.00;;;;;;;15.24;32.11;96931.36;109039;1267;22550;-84
2023/04/28 10:43:39;;;;;;;4.70;3.20;;;;;;;15.29;31.86;96927.02;109076;1274;25496;-84
2023/04/28 10:46:11;;;;;;;7.00;3.00;;;;;;;15.40;31.91;96924.21;109065;1274;24110;-84
2023/04/28 10:49:07;;;;;;;7.20;3.20;;;;;;;15.62;32.08;96923.61;109042;1258;22533;-84
2023/04/28 10:51:39;;;;;;;5.10;3.10;;;;;;;15.74;31.47;96912.95;109041;1270;22538;-84
2023/04/28 10:54:19;;;;;;;5.80;3.20;;;;;;;15.48;30.61;96911.27;109122;1273;23714;-84
2023/04/28 10:57:19;;;;;;;6.60;3.50;;;;;;;15.36;31.21;96910.31;109075;1273;23734;-84
2023/04/28 10:59:51;;;;;;;5.10;3.30;;;;;;;14.96;31.20;96907.64;109173;1273;22577;-85
2023/04/28 11:02:42;;;;;;;5.70;2.90;;;;;;;14.43;31.79;96907.65;109134;1272;22569;-84
2023/04/28 11:05:18;;;;;;;7.40;3.70;;;;;;;14.28;32.39;96904.54;109154;1272;22521;-84
2023/04/28 11:08:26;;;;;;;5.50;3.40;;;;;;;14.00;32.40;96909.56;109122;1270;22521;-85
2023/04/28 11:11:17;;;;;;;7.10;3.70;;;;;;;13.89;33.90;96898.83;109117;1266;22510;-84
2023/04/28 11:13:49;;;;;;;4.90;3.30;;;;;;;14.07;34.05;96897.55;109103;1273;24205;-84
2023/04/28 11:16:22;;;;;;;5.20;3.30;;;;;;;14.21;33.61;96894.59;109117;1267;22524;-84
2023/04/28 11:19:04;;;;;;;5.40;3.10;;;;;;;14.29;33.74;96894.94;109110;1273;22630;-84
2023/04/28 11:21:35;;;;;;;7.40;3.50;;;;;;;14.45;33.56;96892.89;109128;1273;22462;-84
2023/04/28 11:24:12;;;;;;;6.10;3.50;;;;;;;14.59;33.66;96887.83;109074;1273;22551;-84
2023/04/28 11:26:44;;;;;;;5.90;3.20;;;;;;;14.51;32.33;96883.71;109108;1272;25296;-83
2023/04/28 11:29:15;;;;;;;7.00;3.80;;;;;;;14.27;32.65;96884.61;109081;1273;22521;-84
2023/04/28 11:31:52;;;;;;;7.50;3.40;;;;;;;13.99;32.14;96881.22;109083;1273;24987;-84
2023/04/28 11:34:24;;;;;;;6.80;4.20;;;;;;;13.85;32.91;96877.42;109094;1273;22513;-84
2023/04/28 11:36:55;;;;;;;8.20;3.80;;;;;;;13.91;32.95;96874.75;109107;1272;22567;-84
2023/04/28 11:39:31;;;;;;;5.90;3.70;;;;;;;14.12;33.56;96873.26;109131;1273;25284;-84
2023/04/28 11:42:11;;;;;;;5.60;3.30;;;;;;;14.35;33.80;96868.47;109117;1272;22475;-84
2023/04/28 11:44:49;;;;;;;4.90;3.30;;;;;;;14.68;34.46;96862.83;109151;1273;24268;-84
2023/04/28 11:47:31;;;;;;;5.80;3.10;;;;;;;14.93;33.09;96857.05;109113;1272;23191;-85